sensor_id;sensor_type;location;lat;lon;timestamp;temperature;humidity
25839;DHT22;13669;50.186;27.062;2022-11-20T00:01:18;-5.40;98.80
25839;DHT22;13669;50.186;27.062;2022-11-20T00:03:46;-5.40;99.90
25839;DHT22;13669;50.186;27.062;2022-11-20T00:06:15;-5.40;99.90
25839;DHT22;13669;50.186;27.062;2022-11-20T00:08:43;-5.40;44.60
25839;DHT22;13669;50.186;27.062;2022-11-20T00:11:22;-5.30;99.90
25839;DHT22;13669;50.186;27.062;2022-11-20T00:13:54;-5.20;65.60
25839;DHT22;13669;50.186;27.062;2022-11-20T00:16:23;-5.30;99.90
25839;DHT22;13669;50.186;27.062;2022-11-20T00:18:52;-5.20;99.90
25839;DHT22;13669;50.186;27.062;2022-11-20T00:21:22;-5.10;99.90
25839;DHT22;13669;50.186;27.062;2022-11-20T00:23:51;-5.00;62.10
25839;DHT22;13669;50.186;27.062;2022-11-20T00:26:23;-4.90;1.00
25839;DHT22;13669;50.186;27.062;2022-11-20T00:28:55;-4.80;99.90
25839;DHT22;13669;50.186;27.062;2022-11-20T00:31:23;-4.70;99.90
25839;DHT22;13669;50.186;27.062;2022-11-20T00:33:50;-4.60;1.00
25839;DHT22;13669;50.186;27.062;2022-11-20T00:36:20;-4.70;99.90
25839;DHT22;13669;50.186;27.062;2022-11-20T00:38:55;-4.60;1.00
25839;DHT22;13669;50.186;27.062;2022-11-20T00:41:24;-4.60;99.90
25839;DHT22;13669;50.186;27.062;2022-11-20T00:43:53;-4.50;99.90
25839;DHT22;13669;50.186;27.062;2022-11-20T00:46:22;-4.40;99.90
25839;DHT22;13669;50.186;27.062;2022-11-20T00:48:50;-4.40;1.00
25839;DHT22;13669;50.186;27.062;2022-11-20T00:51:20;-4.30;1.00
25839;DHT22;13669;50.186;27.062;2022-11-20T00:53:48;-4.10;99.90
25839;DHT22;13669;50.186;27.062;2022-11-20T00:56:18;-4.20;1.00
25839;DHT22;13669;50.186;27.062;2022-11-20T00:58:47;-4.20;99.90
25839;DHT22;13669;50.186;27.062;2022-11-20T01:01:20;-3.90;99.90
25839;DHT22;13669;50.186;27.062;2022-11-20T01:03:50;-4.10;99.90
25839;DHT22;13669;50.186;27.062;2022-11-20T01:06:21;-4.10;1.00
25839;DHT22;13669;50.186;27.062;2022-11-20T01:08:49;-4.10;15.40
25839;DHT22;13669;50.186;27.062;2022-11-20T01:11:22;-3.70;1.00
25839;DHT22;13669;50.186;27.062;2022-11-20T01:13:51;-3.90;99.90
25839;DHT22;13669;50.186;27.062;2022-11-20T01:16:24;-4.00;1.00
25839;DHT22;13669;50.186;27.062;2022-11-20T01:18:55;-4.10;99.90
25839;DHT22;13669;50.186;27.062;2022-11-20T01:21:31;-4.10;99.90
25839;DHT22;13669;50.186;27.062;2022-11-20T01:24:01;-4.10;1.00
25839;DHT22;13669;50.186;27.062;2022-11-20T01:26:31;-4.00;1.00
25839;DHT22;13669;50.186;27.062;2022-11-20T01:29:00;-3.70;1.00
25839;DHT22;13669;50.186;27.062;2022-11-20T01:31:30;-3.80;1.00
25839;DHT22;13669;50.186;27.062;2022-11-20T01:34:00;-3.70;1.00
25839;DHT22;13669;50.186;27.062;2022-11-20T01:36:30;-3.40;1.00
25839;DHT22;13669;50.186;27.062;2022-11-20T01:39:07;-3.50;99.90
25839;DHT22;13669;50.186;27.062;2022-11-20T01:41:35;-3.60;99.90
25839;DHT22;13669;50.186;27.062;2022-11-20T01:44:42;-3.80;94.10
25839;DHT22;13669;50.186;27.062;2022-11-20T01:47:12;-3.90;91.50
25839;DHT22;13669;50.186;27.062;2022-11-20T01:49:49;-3.90;99.90
25839;DHT22;13669;50.186;27.062;2022-11-20T01:52:21;-3.80;99.90
25839;DHT22;13669;50.186;27.062;2022-11-20T01:55:11;-3.90;99.90
25839;DHT22;13669;50.186;27.062;2022-11-20T01:57:40;-4.00;99.90
25839;DHT22;13669;50.186;27.062;2022-11-20T02:00:10;-3.90;99.90
25839;DHT22;13669;50.186;27.062;2022-11-20T02:02:48;-3.90;13.10
25839;DHT22;13669;50.186;27.062;2022-11-20T02:05:29;-4.00;1.00
25839;DHT22;13669;50.186;27.062;2022-11-20T02:07:59;-4.00;1.00
25839;DHT22;13669;50.186;27.062;2022-11-20T02:10:27;-4.00;37.50
25839;DHT22;13669;50.186;27.062;2022-11-20T02:12:55;-3.90;99.90
25839;DHT22;13669;50.186;27.062;2022-11-20T02:15:42;-3.80;99.90
25839;DHT22;13669;50.186;27.062;2022-11-20T02:18:11;-3.80;27.90
25839;DHT22;13669;50.186;27.062;2022-11-20T02:20:45;-3.80;99.90
25839;DHT22;13669;50.186;27.062;2022-11-20T02:23:32;-3.70;99.90
25839;DHT22;13669;50.186;27.062;2022-11-20T02:26:02;-3.70;99.90
25839;DHT22;13669;50.186;27.062;2022-11-20T02:28:32;-3.70;1.00
25839;DHT22;13669;50.186;27.062;2022-11-20T02:31:00;-3.60;99.90
25839;DHT22;13669;50.186;27.062;2022-11-20T02:33:27;-3.60;99.90
25839;DHT22;13669;50.186;27.062;2022-11-20T02:35:55;-3.50;99.90
25839;DHT22;13669;50.186;27.062;2022-11-20T02:38:22;-3.40;1.00
25839;DHT22;13669;50.186;27.062;2022-11-20T02:40:50;-3.30;99.90
25839;DHT22;13669;50.186;27.062;2022-11-20T02:43:22;-3.40;1.00
25839;DHT22;13669;50.186;27.062;2022-11-20T02:45:50;-3.40;1.00
25839;DHT22;13669;50.186;27.062;2022-11-20T02:48:17;-3.40;1.00
25839;DHT22;13669;50.186;27.062;2022-11-20T02:50:45;-3.40;1.00
25839;DHT22;13669;50.186;27.062;2022-11-20T02:53:12;-3.50;99.90
25839;DHT22;13669;50.186;27.062;2022-11-20T02:55:40;-3.40;99.90
25839;DHT22;13669;50.186;27.062;2022-11-20T02:58:07;-3.30;1.00
25839;DHT22;13669;50.186;27.062;2022-11-20T03:00:35;-3.20;99.90
25839;DHT22;13669;50.186;27.062;2022-11-20T03:03:02;-3.20;99.90
25839;DHT22;13669;50.186;27.062;2022-11-20T03:05:30;-3.20;99.90
25839;DHT22;13669;50.186;27.062;2022-11-20T03:07:57;-3.20;99.90
25839;DHT22;13669;50.186;27.062;2022-11-20T03:10:24;-3.10;99.90
25839;DHT22;13669;50.186;27.062;2022-11-20T03:12:55;-3.10;1.00
25839;DHT22;13669;50.186;27.062;2022-11-20T03:15:23;-2.90;1.00
25839;DHT22;13669;50.186;27.062;2022-11-20T03:17:54;-3.10;1.00
25839;DHT22;13669;50.186;27.062;2022-11-20T03:20:22;-3.10;1.00
25839;DHT22;13669;50.186;27.062;2022-11-20T03:22:50;-3.00;1.00
25839;DHT22;13669;50.186;27.062;2022-11-20T03:25:17;-3.10;99.90
25839;DHT22;13669;50.186;27.062;2022-11-20T03:27:45;-3.00;1.00
25839;DHT22;13669;50.186;27.062;2022-11-20T03:30:13;-3.00;32.90
25839;DHT22;13669;50.186;27.062;2022-11-20T03:32:41;-3.00;99.90
25839;DHT22;13669;50.186;27.062;2022-11-20T03:35:09;-3.00;1.00
25839;DHT22;13669;50.186;27.062;2022-11-20T03:37:36;-3.00;1.00
25839;DHT22;13669;50.186;27.062;2022-11-20T03:40:04;-2.80;1.00
25839;DHT22;13669;50.186;27.062;2022-11-20T03:42:32;-2.70;99.90
25839;DHT22;13669;50.186;27.062;2022-11-20T03:45:16;-2.70;99.90
25839;DHT22;13669;50.186;27.062;2022-11-20T03:47:45;-2.70;99.90
25839;DHT22;13669;50.186;27.062;2022-11-20T03:50:13;-2.60;99.90
25839;DHT22;13669;50.186;27.062;2022-11-20T03:52:41;-2.60;99.90
25839;DHT22;13669;50.186;27.062;2022-11-20T03:55:09;-2.60;99.90
25839;DHT22;13669;50.186;27.062;2022-11-20T03:57:36;-2.60;99.90
25839;DHT22;13669;50.186;27.062;2022-11-20T04:00:04;-2.50;99.90
25839;DHT22;13669;50.186;27.062;2022-11-20T04:02:32;-2.50;1.00
25839;DHT22;13669;50.186;27.062;2022-11-20T04:04:59;-2.50;9.10
25839;DHT22;13669;50.186;27.062;2022-11-20T04:07:27;-2.50;1.00
25839;DHT22;13669;50.186;27.062;2022-11-20T04:09:54;-2.50;99.90
25839;DHT22;13669;50.186;27.062;2022-11-20T04:12:21;-2.50;1.00
25839;DHT22;13669;50.186;27.062;2022-11-20T04:14:49;-2.50;1.00
25839;DHT22;13669;50.186;27.062;2022-11-20T04:17:16;-2.40;1.00
25839;DHT22;13669;50.186;27.062;2022-11-20T04:19:44;-2.40;1.00
25839;DHT22;13669;50.186;27.062;2022-11-20T04:22:11;-2.50;99.90
25839;DHT22;13669;50.186;27.062;2022-11-20T04:24:39;-2.50;1.00
25839;DHT22;13669;50.186;27.062;2022-11-20T04:27:06;-2.50;1.00
25839;DHT22;13669;50.186;27.062;2022-11-20T04:29:34;-2.50;99.90
25839;DHT22;13669;50.186;27.062;2022-11-20T04:32:01;-2.50;1.00
25839;DHT22;13669;50.186;27.062;2022-11-20T04:34:28;-2.40;1.00
25839;DHT22;13669;50.186;27.062;2022-11-20T04:36:56;-2.40;99.90
25839;DHT22;13669;50.186;27.062;2022-11-20T04:39:23;-2.40;1.00
25839;DHT22;13669;50.186;27.062;2022-11-20T04:41:51;-2.40;99.90
25839;DHT22;13669;50.186;27.062;2022-11-20T04:44:38;-2.50;99.90
25839;DHT22;13669;50.186;27.062;2022-11-20T04:47:05;-2.50;99.90
25839;DHT22;13669;50.186;27.062;2022-11-20T04:49:33;-2.60;1.00
25839;DHT22;13669;50.186;27.062;2022-11-20T04:52:01;-2.60;99.90
25839;DHT22;13669;50.186;27.062;2022-11-20T04:54:28;-2.60;99.90
25839;DHT22;13669;50.186;27.062;2022-11-20T04:56:55;-2.60;99.90
25839;DHT22;13669;50.186;27.062;2022-11-20T04:59:23;-2.70;99.90
25839;DHT22;13669;50.186;27.062;2022-11-20T05:01:51;-2.60;99.90
25839;DHT22;13669;50.186;27.062;2022-11-20T05:04:18;-2.60;99.90
25839;DHT22;13669;50.186;27.062;2022-11-20T05:06:46;-2.60;99.90
25839;DHT22;13669;50.186;27.062;2022-11-20T05:09:13;-2.70;1.00
25839;DHT22;13669;50.186;27.062;2022-11-20T05:11:40;-2.80;1.00
25839;DHT22;13669;50.186;27.062;2022-11-20T05:14:08;-2.90;1.00
25839;DHT22;13669;50.186;27.062;2022-11-20T05:16:35;-2.80;1.00
25839;DHT22;13669;50.186;27.062;2022-11-20T05:19:03;-2.80;1.00
25839;DHT22;13669;50.186;27.062;2022-11-20T05:21:31;-2.90;1.00
25839;DHT22;13669;50.186;27.062;2022-11-20T05:23:59;-2.90;1.00
25839;DHT22;13669;50.186;27.062;2022-11-20T05:26:26;-2.90;1.00
25839;DHT22;13669;50.186;27.062;2022-11-20T05:28:54;-2.90;1.00
25839;DHT22;13669;50.186;27.062;2022-11-20T05:31:23;-2.80;1.00
25839;DHT22;13669;50.186;27.062;2022-11-20T05:33:55;-2.70;1.00
25839;DHT22;13669;50.186;27.062;2022-11-20T05:36:23;-2.60;1.00
25839;DHT22;13669;50.186;27.062;2022-11-20T05:38:51;-2.60;1.00
25839;DHT22;13669;50.186;27.062;2022-11-20T05:41:26;-2.60;1.00
25839;DHT22;13669;50.186;27.062;2022-11-20T05:43:53;-2.60;1.00
25839;DHT22;13669;50.186;27.062;2022-11-20T05:46:21;-2.60;1.00
25839;DHT22;13669;50.186;27.062;2022-11-20T05:48:56;-2.50;1.00
25839;DHT22;13669;50.186;27.062;2022-11-20T05:51:26;-2.50;1.00
25839;DHT22;13669;50.186;27.062;2022-11-20T05:53:56;-2.20;1.00
25839;DHT22;13669;50.186;27.062;2022-11-20T05:56:24;-2.30;1.00
25839;DHT22;13669;50.186;27.062;2022-11-20T05:58:51;-2.30;1.00
25839;DHT22;13669;50.186;27.062;2022-11-20T06:01:21;-2.30;1.00
25839;DHT22;13669;50.186;27.062;2022-11-20T06:03:49;-2.30;1.00
25839;DHT22;13669;50.186;27.062;2022-11-20T06:06:19;-2.30;1.00
25839;DHT22;13669;50.186;27.062;2022-11-20T06:08:46;-2.20;1.00
25839;DHT22;13669;50.186;27.062;2022-11-20T06:11:15;-2.10;1.00
25839;DHT22;13669;50.186;27.062;2022-11-20T06:13:43;-2.20;1.00
25839;DHT22;13669;50.186;27.062;2022-11-20T06:16:14;-2.20;1.00
25839;DHT22;13669;50.186;27.062;2022-11-20T06:18:41;-2.20;1.00
25839;DHT22;13669;50.186;27.062;2022-11-20T06:21:11;-2.00;1.00
25839;DHT22;13669;50.186;27.062;2022-11-20T06:23:39;-1.90;1.00
25839;DHT22;13669;50.186;27.062;2022-11-20T06:26:09;-1.80;1.00
25839;DHT22;13669;50.186;27.062;2022-11-20T06:28:37;-1.70;99.90
25839;DHT22;13669;50.186;27.062;2022-11-20T06:31:05;-1.60;99.90
25839;DHT22;13669;50.186;27.062;2022-11-20T06:33:33;-1.60;99.90
25839;DHT22;13669;50.186;27.062;2022-11-20T06:36:01;-1.70;99.90
25839;DHT22;13669;50.186;27.062;2022-11-20T06:38:37;-1.60;99.90
25839;DHT22;13669;50.186;27.062;2022-11-20T06:41:06;-1.50;99.90
25839;DHT22;13669;50.186;27.062;2022-11-20T06:43:33;-1.50;1.00
25839;DHT22;13669;50.186;27.062;2022-11-20T06:46:01;-1.50;1.00
25839;DHT22;13669;50.186;27.062;2022-11-20T06:48:29;-1.40;1.00
25839;DHT22;13669;50.186;27.062;2022-11-20T06:50:56;-1.40;1.00
25839;DHT22;13669;50.186;27.062;2022-11-20T06:53:24;-1.40;1.00
25839;DHT22;13669;50.186;27.062;2022-11-20T06:55:52;-1.40;1.00
25839;DHT22;13669;50.186;27.062;2022-11-20T06:58:19;-1.20;1.00
25839;DHT22;13669;50.186;27.062;2022-11-20T07:00:47;-1.10;1.00
25839;DHT22;13669;50.186;27.062;2022-11-20T07:03:14;-1.10;1.00
25839;DHT22;13669;50.186;27.062;2022-11-20T07:05:42;-1.20;1.00
25839;DHT22;13669;50.186;27.062;2022-11-20T07:08:09;-1.20;1.00
25839;DHT22;13669;50.186;27.062;2022-11-20T07:10:37;-1.10;1.00
25839;DHT22;13669;50.186;27.062;2022-11-20T07:13:05;-1.00;1.00
25839;DHT22;13669;50.186;27.062;2022-11-20T07:15:34;-1.00;1.00
25839;DHT22;13669;50.186;27.062;2022-11-20T07:18:01;-0.90;1.00
25839;DHT22;13669;50.186;27.062;2022-11-20T07:20:29;-0.90;1.00
25839;DHT22;13669;50.186;27.062;2022-11-20T07:22:57;-0.90;1.00
25839;DHT22;13669;50.186;27.062;2022-11-20T07:25:26;-0.80;1.00
25839;DHT22;13669;50.186;27.062;2022-11-20T07:27:58;-0.80;1.00
25839;DHT22;13669;50.186;27.062;2022-11-20T07:30:26;-0.80;1.00
25839;DHT22;13669;50.186;27.062;2022-11-20T07:32:55;-0.80;1.00
25839;DHT22;13669;50.186;27.062;2022-11-20T07:35:25;-0.70;1.00
25839;DHT22;13669;50.186;27.062;2022-11-20T07:37:53;-0.80;1.00
25839;DHT22;13669;50.186;27.062;2022-11-20T07:40:20;-0.80;1.00
25839;DHT22;13669;50.186;27.062;2022-11-20T07:42:49;-0.80;1.00
25839;DHT22;13669;50.186;27.062;2022-11-20T07:45:18;-0.80;1.00
25839;DHT22;13669;50.186;27.062;2022-11-20T07:47:46;-0.90;1.00
25839;DHT22;13669;50.186;27.062;2022-11-20T07:50:14;-0.80;1.00
25839;DHT22;13669;50.186;27.062;2022-11-20T07:52:41;-0.90;1.00
25839;DHT22;13669;50.186;27.062;2022-11-20T07:55:09;-0.90;1.00
25839;DHT22;13669;50.186;27.062;2022-11-20T07:57:37;-0.90;1.00
25839;DHT22;13669;50.186;27.062;2022-11-20T08:00:06;-0.90;1.00
25839;DHT22;13669;50.186;27.062;2022-11-20T08:02:40;-0.90;1.00
25839;DHT22;13669;50.186;27.062;2022-11-20T08:05:11;-0.70;10.30
25839;DHT22;13669;50.186;27.062;2022-11-20T08:07:40;-0.70;1.00
25839;DHT22;13669;50.186;27.062;2022-11-20T08:10:09;-0.60;1.00
25839;DHT22;13669;50.186;27.062;2022-11-20T08:12:47;-0.50;1.00
25839;DHT22;13669;50.186;27.062;2022-11-20T08:15:34;-0.50;1.00
25839;DHT22;13669;50.186;27.062;2022-11-20T08:18:07;-0.50;1.00
25839;DHT22;13669;50.186;27.062;2022-11-20T08:20:55;-0.50;1.00
25839;DHT22;13669;50.186;27.062;2022-11-20T08:23:22;-0.50;1.00
25839;DHT22;13669;50.186;27.062;2022-11-20T08:25:50;-0.60;1.00
25839;DHT22;13669;50.186;27.062;2022-11-20T08:28:18;-0.50;1.00
25839;DHT22;13669;50.186;27.062;2022-11-20T08:30:49;-0.50;1.00
25839;DHT22;13669;50.186;27.062;2022-11-20T08:33:18;-0.50;1.00
25839;DHT22;13669;50.186;27.062;2022-11-20T08:35:46;-0.40;1.00
25839;DHT22;13669;50.186;27.062;2022-11-20T08:38:13;-0.30;1.00
25839;DHT22;13669;50.186;27.062;2022-11-20T08:40:41;-0.20;1.00
25839;DHT22;13669;50.186;27.062;2022-11-20T08:43:08;-0.20;1.00
25839;DHT22;13669;50.186;27.062;2022-11-20T08:45:36;-0.10;1.00
25839;DHT22;13669;50.186;27.062;2022-11-20T08:48:03;-0.10;1.00
25839;DHT22;13669;50.186;27.062;2022-11-20T08:50:31;-0.20;1.00
25839;DHT22;13669;50.186;27.062;2022-11-20T08:53:06;-0.10;1.00
25839;DHT22;13669;50.186;27.062;2022-11-20T08:55:34;-0.10;1.00
25839;DHT22;13669;50.186;27.062;2022-11-20T08:58:04;-0.20;1.00
25839;DHT22;13669;50.186;27.062;2022-11-20T09:00:33;-0.20;1.00
25839;DHT22;13669;50.186;27.062;2022-11-20T09:03:01;-0.20;1.00
25839;DHT22;13669;50.186;27.062;2022-11-20T09:05:29;0.00;1.00
25839;DHT22;13669;50.186;27.062;2022-11-20T09:07:57;-0.10;99.90
25839;DHT22;13669;50.186;27.062;2022-11-20T09:10:26;-0.10;99.90
25839;DHT22;13669;50.186;27.062;2022-11-20T09:12:54;-0.10;1.00
25839;DHT22;13669;50.186;27.062;2022-11-20T09:15:25;-0.10;1.00
25839;DHT22;13669;50.186;27.062;2022-11-20T09:17:58;-0.10;99.90
25839;DHT22;13669;50.186;27.062;2022-11-20T09:20:27;-0.10;1.00
25839;DHT22;13669;50.186;27.062;2022-11-20T09:22:56;0.10;1.00
25839;DHT22;13669;50.186;27.062;2022-11-20T09:25:24;0.10;99.90
25839;DHT22;13669;50.186;27.062;2022-11-20T09:27:58;0.20;99.90
25839;DHT22;13669;50.186;27.062;2022-11-20T09:30:26;0.20;99.90
25839;DHT22;13669;50.186;27.062;2022-11-20T09:32:54;0.20;99.90
25839;DHT22;13669;50.186;27.062;2022-11-20T09:35:22;0.00;99.90
25839;DHT22;13669;50.186;27.062;2022-11-20T09:37:49;-0.10;1.00
25839;DHT22;13669;50.186;27.062;2022-11-20T09:40:28;-0.10;1.00
25839;DHT22;13669;50.186;27.062;2022-11-20T09:48:36;0.00;1.00
25839;DHT22;13669;50.186;27.062;2022-11-20T09:51:19;0.10;1.00
25839;DHT22;13669;50.186;27.062;2022-11-20T09:53:56;0.10;1.00
25839;DHT22;13669;50.186;27.062;2022-11-20T09:56:28;0.10;99.90
25839;DHT22;13669;50.186;27.062;2022-11-20T09:59:01;0.10;1.00
25839;DHT22;13669;50.186;27.062;2022-11-20T10:01:32;0.00;1.00
25839;DHT22;13669;50.186;27.062;2022-11-20T10:06:37;0.00;1.00
25839;DHT22;13669;50.186;27.062;2022-11-20T10:12:04;0.10;1.00
25839;DHT22;13669;50.186;27.062;2022-11-20T10:17:08;0.00;1.00
25839;DHT22;13669;50.186;27.062;2022-11-20T10:22:59;0.10;1.00
25839;DHT22;13669;50.186;27.062;2022-11-20T10:31:51;0.20;1.00
25839;DHT22;13669;50.186;27.062;2022-11-20T10:37:25;0.30;1.00
25839;DHT22;13669;50.186;27.062;2022-11-20T10:39:59;0.40;1.00
25839;DHT22;13669;50.186;27.062;2022-11-20T10:42:43;0.40;99.90
25839;DHT22;13669;50.186;27.062;2022-11-20T10:47:46;0.40;99.90
25839;DHT22;13669;50.186;27.062;2022-11-20T10:50:19;0.30;99.90
25839;DHT22;13669;50.186;27.062;2022-11-20T10:55:42;0.40;1.00
25839;DHT22;13669;50.186;27.062;2022-11-20T11:00:39;0.40;1.00
25839;DHT22;13669;50.186;27.062;2022-11-20T11:03:27;0.40;1.00
25839;DHT22;13669;50.186;27.062;2022-11-20T11:06:10;0.40;1.00
25839;DHT22;13669;50.186;27.062;2022-11-20T11:08:43;0.50;1.00
25839;DHT22;13669;50.186;27.062;2022-11-20T11:11:31;0.60;99.90
25839;DHT22;13669;50.186;27.062;2022-11-20T11:14:12;0.60;99.90
25839;DHT22;13669;50.186;27.062;2022-11-20T11:16:56;0.50;99.90
25839;DHT22;13669;50.186;27.062;2022-11-20T11:19:24;0.60;99.90
25839;DHT22;13669;50.186;27.062;2022-11-20T11:21:54;0.50;99.90
25839;DHT22;13669;50.186;27.062;2022-11-20T11:24:28;0.50;1.00
25839;DHT22;13669;50.186;27.062;2022-11-20T11:27:13;0.50;1.00
25839;DHT22;13669;50.186;27.062;2022-11-20T11:29:44;0.40;1.00
25839;DHT22;13669;50.186;27.062;2022-11-20T11:32:18;0.40;1.00
25839;DHT22;13669;50.186;27.062;2022-11-20T11:35:20;0.40;1.00
25839;DHT22;13669;50.186;27.062;2022-11-20T11:37:47;0.40;1.00
25839;DHT22;13669;50.186;27.062;2022-11-20T11:40:18;0.40;1.00
25839;DHT22;13669;50.186;27.062;2022-11-20T11:42:55;0.50;1.00
25839;DHT22;13669;50.186;27.062;2022-11-20T11:45:24;0.50;1.00
25839;DHT22;13669;50.186;27.062;2022-11-20T11:47:54;0.40;1.00
25839;DHT22;13669;50.186;27.062;2022-11-20T11:50:26;0.40;1.00
25839;DHT22;13669;50.186;27.062;2022-11-20T11:53:10;0.50;1.00
25839;DHT22;13669;50.186;27.062;2022-11-20T11:55:45;0.40;1.00
25839;DHT22;13669;50.186;27.062;2022-11-20T11:58:40;0.40;1.00
25839;DHT22;13669;50.186;27.062;2022-11-20T12:07:12;0.50;1.00
25839;DHT22;13669;50.186;27.062;2022-11-20T12:10:03;0.50;1.00
25839;DHT22;13669;50.186;27.062;2022-11-20T12:12:36;0.60;1.00
25839;DHT22;13669;50.186;27.062;2022-11-20T12:15:10;0.50;1.00
25839;DHT22;13669;50.186;27.062;2022-11-20T12:17:38;0.60;1.00
25839;DHT22;13669;50.186;27.062;2022-11-20T12:20:13;0.50;1.00
25839;DHT22;13669;50.186;27.062;2022-11-20T12:25:32;0.50;1.00
25839;DHT22;13669;50.186;27.062;2022-11-20T12:34:32;0.50;1.00
25839;DHT22;13669;50.186;27.062;2022-11-20T12:39:41;0.40;1.00
25839;DHT22;13669;50.186;27.062;2022-11-20T12:45:19;0.50;1.00
25839;DHT22;13669;50.186;27.062;2022-11-20T12:56:19;0.30;1.00
25839;DHT22;13669;50.186;27.062;2022-11-20T12:59:28;0.30;1.00
25839;DHT22;13669;50.186;27.062;2022-11-20T13:07:31;0.30;7.00
25839;DHT22;13669;50.186;27.062;2022-11-20T13:10:00;0.30;1.00
25839;DHT22;13669;50.186;27.062;2022-11-20T13:12:35;0.30;1.00
25839;DHT22;13669;50.186;27.062;2022-11-20T13:20:18;0.30;1.00
25839;DHT22;13669;50.186;27.062;2022-11-20T13:22:51;0.20;1.00
25839;DHT22;13669;50.186;27.062;2022-11-20T13:25:29;0.20;1.00
25839;DHT22;13669;50.186;27.062;2022-11-20T13:27:59;0.20;10.50
25839;DHT22;13669;50.186;27.062;2022-11-20T13:30:29;0.20;1.00
25839;DHT22;13669;50.186;27.062;2022-11-20T13:33:25;0.20;3.60
25839;DHT22;13669;50.186;27.062;2022-11-20T13:36:21;0.20;27.20
25839;DHT22;13669;50.186;27.062;2022-11-20T13:38:51;0.20;1.00
25839;DHT22;13669;50.186;27.062;2022-11-20T13:41:36;0.20;29.70
25839;DHT22;13669;50.186;27.062;2022-11-20T13:44:13;0.20;24.60
25839;DHT22;13669;50.186;27.062;2022-11-20T13:46:44;0.20;6.30
25839;DHT22;13669;50.186;27.062;2022-11-20T13:49:33;0.20;8.50
25839;DHT22;13669;50.186;27.062;2022-11-20T14:00:45;-0.10;63.20
25839;DHT22;13669;50.186;27.062;2022-11-20T14:03:21;-0.10;69.20
25839;DHT22;13669;50.186;27.062;2022-11-20T14:06:28;-0.30;82.20
25839;DHT22;13669;50.186;27.062;2022-11-20T14:08:56;-0.30;99.90
25839;DHT22;13669;50.186;27.062;2022-11-20T14:11:25;-0.20;99.90
25839;DHT22;13669;50.186;27.062;2022-11-20T14:14:14;-0.20;98.70
25839;DHT22;13669;50.186;27.062;2022-11-20T14:16:42;-0.20;91.10
25839;DHT22;13669;50.186;27.062;2022-11-20T14:19:30;-0.20;93.30
25839;DHT22;13669;50.186;27.062;2022-11-20T14:22:20;-0.20;89.00
25839;DHT22;13669;50.186;27.062;2022-11-20T14:24:49;-0.30;79.50
25839;DHT22;13669;50.186;27.062;2022-11-20T14:27:20;-0.30;88.10
25839;DHT22;13669;50.186;27.062;2022-11-20T14:29:49;-0.30;96.40
25839;DHT22;13669;50.186;27.062;2022-11-20T14:32:19;-0.30;97.30
25839;DHT22;13669;50.186;27.062;2022-11-20T14:34:49;-0.30;99.90
25839;DHT22;13669;50.186;27.062;2022-11-20T14:37:23;-0.30;99.90
25839;DHT22;13669;50.186;27.062;2022-11-20T14:39:53;-0.30;99.90
25839;DHT22;13669;50.186;27.062;2022-11-20T14:42:22;-0.30;99.90
25839;DHT22;13669;50.186;27.062;2022-11-20T14:44:52;-0.20;99.90
25839;DHT22;13669;50.186;27.062;2022-11-20T14:47:32;-0.20;99.90
25839;DHT22;13669;50.186;27.062;2022-11-20T14:50:00;0.00;94.60
25839;DHT22;13669;50.186;27.062;2022-11-20T14:52:35;-0.10;91.40
25839;DHT22;13669;50.186;27.062;2022-11-20T14:55:03;-0.10;75.30
25839;DHT22;13669;50.186;27.062;2022-11-20T14:57:35;-0.20;56.80
25839;DHT22;13669;50.186;27.062;2022-11-20T15:02:32;-0.20;67.20
25839;DHT22;13669;50.186;27.062;2022-11-20T15:05:01;-0.20;71.60
25839;DHT22;13669;50.186;27.062;2022-11-20T15:07:44;-0.20;55.30
25839;DHT22;13669;50.186;27.062;2022-11-20T15:10:25;-0.20;75.80
25839;DHT22;13669;50.186;27.062;2022-11-20T15:13:02;-0.40;72.20
25839;DHT22;13669;50.186;27.062;2022-11-20T15:15:49;-0.30;99.90
25839;DHT22;13669;50.186;27.062;2022-11-20T15:18:21;-0.30;91.60
25839;DHT22;13669;50.186;27.062;2022-11-20T15:20:49;-0.40;91.60
25839;DHT22;13669;50.186;27.062;2022-11-20T15:23:18;-0.40;96.10
25839;DHT22;13669;50.186;27.062;2022-11-20T15:25:47;-0.30;99.90
25839;DHT22;13669;50.186;27.062;2022-11-20T15:28:19;-0.30;95.40
25839;DHT22;13669;50.186;27.062;2022-11-20T15:30:48;-0.30;99.90
25839;DHT22;13669;50.186;27.062;2022-11-20T15:33:17;-0.30;94.20
25839;DHT22;13669;50.186;27.062;2022-11-20T15:35:45;-0.20;77.90
25839;DHT22;13669;50.186;27.062;2022-11-20T15:38:12;-0.30;55.00
25839;DHT22;13669;50.186;27.062;2022-11-20T15:40:40;-0.30;89.60
25839;DHT22;13669;50.186;27.062;2022-11-20T15:43:08;-0.30;75.70
25839;DHT22;13669;50.186;27.062;2022-11-20T15:45:49;-0.30;95.00
25839;DHT22;13669;50.186;27.062;2022-11-20T15:48:20;-0.30;99.90
25839;DHT22;13669;50.186;27.062;2022-11-20T15:53:30;-0.10;95.00
25839;DHT22;13669;50.186;27.062;2022-11-20T15:55:57;-0.20;77.20
25839;DHT22;13669;50.186;27.062;2022-11-20T15:58:25;-0.20;90.40
25839;DHT22;13669;50.186;27.062;2022-11-20T16:00:53;-0.20;84.00
25839;DHT22;13669;50.186;27.062;2022-11-20T16:03:21;-0.30;81.00
25839;DHT22;13669;50.186;27.062;2022-11-20T16:05:49;-0.30;93.70
25839;DHT22;13669;50.186;27.062;2022-11-20T16:08:17;-0.20;99.10
25839;DHT22;13669;50.186;27.062;2022-11-20T16:10:44;-0.20;93.70
25839;DHT22;13669;50.186;27.062;2022-11-20T16:13:14;-0.20;95.60
25839;DHT22;13669;50.186;27.062;2022-11-20T16:16:05;-0.20;94.70
25839;DHT22;13669;50.186;27.062;2022-11-20T16:18:33;-0.20;95.20
25839;DHT22;13669;50.186;27.062;2022-11-20T16:21:02;-0.20;99.90
25839;DHT22;13669;50.186;27.062;2022-11-20T16:23:29;-0.20;86.20
25839;DHT22;13669;50.186;27.062;2022-11-20T16:25:57;-0.20;96.50
25839;DHT22;13669;50.186;27.062;2022-11-20T16:28:24;-0.20;87.80
25839;DHT22;13669;50.186;27.062;2022-11-20T16:30:52;-0.10;95.70
25839;DHT22;13669;50.186;27.062;2022-11-20T16:33:19;-0.20;87.10
25839;DHT22;13669;50.186;27.062;2022-11-20T16:35:47;-0.30;88.60
25839;DHT22;13669;50.186;27.062;2022-11-20T16:38:14;-0.30;90.20
25839;DHT22;13669;50.186;27.062;2022-11-20T16:40:42;-0.30;99.90
25839;DHT22;13669;50.186;27.062;2022-11-20T16:43:10;-0.20;99.90
25839;DHT22;13669;50.186;27.062;2022-11-20T16:45:44;-0.30;99.90
25839;DHT22;13669;50.186;27.062;2022-11-20T16:48:13;-0.30;99.90
25839;DHT22;13669;50.186;27.062;2022-11-20T16:50:51;-0.30;99.90
25839;DHT22;13669;50.186;27.062;2022-11-20T16:53:21;-0.40;99.90
25839;DHT22;13669;50.186;27.062;2022-11-20T16:55:48;-0.40;99.90
25839;DHT22;13669;50.186;27.062;2022-11-20T16:58:16;-0.30;99.90
25839;DHT22;13669;50.186;27.062;2022-11-20T17:00:44;-0.30;99.90
25839;DHT22;13669;50.186;27.062;2022-11-20T17:03:18;-0.30;99.90
25839;DHT22;13669;50.186;27.062;2022-11-20T17:05:45;-0.20;99.90
25839;DHT22;13669;50.186;27.062;2022-11-20T17:08:13;-0.10;99.90
25839;DHT22;13669;50.186;27.062;2022-11-20T17:10:40;-0.10;99.90
25839;DHT22;13669;50.186;27.062;2022-11-20T17:13:08;-0.10;97.80
25839;DHT22;13669;50.186;27.062;2022-11-20T17:15:36;-0.10;97.50
25839;DHT22;13669;50.186;27.062;2022-11-20T17:18:03;-0.10;99.90
25839;DHT22;13669;50.186;27.062;2022-11-20T17:20:31;-0.10;93.60